sensor_id;sensor_type;location;lat;lon;timestamp;P1;durP1;ratioP1;P2;durP2;ratioP2
54935;SDS011;40838;50.676;7.838;2022-10-16T00:02:21;6.68;;;3.80;;
54935;SDS011;40838;50.676;7.838;2022-10-16T00:04:48;7.20;;;3.50;;
54935;SDS011;40838;50.676;7.838;2022-10-16T00:07:20;7.03;;;3.70;;
54935;SDS011;40838;50.676;7.838;2022-10-16T00:09:46;3.70;;;3.40;;
54935;SDS011;40838;50.676;7.838;2022-10-16T00:12:13;3.25;;;2.90;;
54935;SDS011;40838;50.676;7.838;2022-10-16T00:14:40;4.13;;;3.60;;
54935;SDS011;40838;50.676;7.838;2022-10-16T00:17:10;6.80;;;3.33;;
54935;SDS011;40838;50.676;7.838;2022-10-16T00:19:38;4.57;;;3.45;;
54935;SDS011;40838;50.676;7.838;2022-10-16T00:22:04;6.35;;;3.40;;
54935;SDS011;40838;50.676;7.838;2022-10-16T00:24:31;6.35;;;3.67;;
54935;SDS011;40838;50.676;7.838;2022-10-16T00:26:58;5.57;;;3.80;;
54935;SDS011;40838;50.676;7.838;2022-10-16T00:29:24;4.82;;;3.92;;
54935;SDS011;40838;50.676;7.838;2022-10-16T00:31:51;7.22;;;4.40;;
54935;SDS011;40838;50.676;7.838;2022-10-16T00:34:19;3.72;;;3.42;;
54935;SDS011;40838;50.676;7.838;2022-10-16T00:36:47;4.13;;;3.80;;
54935;SDS011;40838;50.676;7.838;2022-10-16T00:39:14;4.88;;;3.28;;
54935;SDS011;40838;50.676;7.838;2022-10-16T00:41:41;6.57;;;4.10;;
54935;SDS011;40838;50.676;7.838;2022-10-16T00:46:53;8.45;;;4.97;;
54935;SDS011;40838;50.676;7.838;2022-10-16T00:49:21;7.38;;;4.50;;
54935;SDS011;40838;50.676;7.838;2022-10-16T00:51:49;4.43;;;3.80;;
54935;SDS011;40838;50.676;7.838;2022-10-16T00:54:17;4.35;;;2.80;;
54935;SDS011;40838;50.676;7.838;2022-10-16T00:56:44;7.15;;;3.25;;
54935;SDS011;40838;50.676;7.838;2022-10-16T00:59:14;9.73;;;5.75;;
54935;SDS011;40838;50.676;7.838;2022-10-16T01:01:41;12.02;;;7.03;;
54935;SDS011;40838;50.676;7.838;2022-10-16T01:04:08;9.48;;;5.93;;
54935;SDS011;40838;50.676;7.838;2022-10-16T01:06:39;10.52;;;6.18;;
54935;SDS011;40838;50.676;7.838;2022-10-16T01:09:20;9.10;;;5.63;;
54935;SDS011;40838;50.676;7.838;2022-10-16T01:11:52;10.48;;;5.90;;
54935;SDS011;40838;50.676;7.838;2022-10-16T01:14:22;6.35;;;4.90;;
54935;SDS011;40838;50.676;7.838;2022-10-16T01:16:53;11.88;;;5.05;;
54935;SDS011;40838;50.676;7.838;2022-10-16T01:19:26;7.18;;;5.80;;
54935;SDS011;40838;50.676;7.838;2022-10-16T01:22:02;6.60;;;5.57;;
54935;SDS011;40838;50.676;7.838;2022-10-16T01:24:31;8.95;;;5.60;;
54935;SDS011;40838;50.676;7.838;2022-10-16T01:27:12;11.88;;;5.57;;
54935;SDS011;40838;50.676;7.838;2022-10-16T01:29:42;11.93;;;5.57;;
54935;SDS011;40838;50.676;7.838;2022-10-16T01:32:13;7.10;;;6.32;;
54935;SDS011;40838;50.676;7.838;2022-10-16T01:34:42;10.07;;;5.88;;
54935;SDS011;40838;50.676;7.838;2022-10-16T01:37:12;7.47;;;4.38;;
54935;SDS011;40838;50.676;7.838;2022-10-16T01:39:41;10.25;;;4.80;;
54935;SDS011;40838;50.676;7.838;2022-10-16T01:42:10;5.50;;;4.30;;
54935;SDS011;40838;50.676;7.838;2022-10-16T01:44:39;7.93;;;4.50;;
54935;SDS011;40838;50.676;7.838;2022-10-16T01:47:06;5.13;;;4.28;;
54935;SDS011;40838;50.676;7.838;2022-10-16T01:49:34;4.15;;;3.75;;
54935;SDS011;40838;50.676;7.838;2022-10-16T01:52:04;6.82;;;4.13;;
54935;SDS011;40838;50.676;7.838;2022-10-16T01:54:34;4.93;;;4.15;;
54935;SDS011;40838;50.676;7.838;2022-10-16T01:57:04;7.93;;;3.55;;
54935;SDS011;40838;50.676;7.838;2022-10-16T01:59:37;10.77;;;3.90;;
54935;SDS011;40838;50.676;7.838;2022-10-16T02:02:07;6.43;;;3.38;;
54935;SDS011;40838;50.676;7.838;2022-10-16T02:04:35;3.25;;;2.95;;
54935;SDS011;40838;50.676;7.838;2022-10-16T02:07:03;6.75;;;2.88;;
54935;SDS011;40838;50.676;7.838;2022-10-16T02:09:29;10.23;;;3.20;;
54935;SDS011;40838;50.676;7.838;2022-10-16T02:11:56;5.63;;;3.10;;
54935;SDS011;40838;50.676;7.838;2022-10-16T02:14:27;4.63;;;3.40;;
54935;SDS011;40838;50.676;7.838;2022-10-16T02:16:54;3.53;;;3.22;;
54935;SDS011;40838;50.676;7.838;2022-10-16T02:19:22;5.28;;;3.38;;
54935;SDS011;40838;50.676;7.838;2022-10-16T02:21:49;7.75;;;3.78;;
54935;SDS011;40838;50.676;7.838;2022-10-16T02:24:18;6.20;;;3.45;;
54935;SDS011;40838;50.676;7.838;2022-10-16T02:26:48;5.63;;;3.00;;
54935;SDS011;40838;50.676;7.838;2022-10-16T02:29:16;7.28;;;2.88;;
54935;SDS011;40838;50.676;7.838;2022-10-16T02:31:45;3.28;;;2.58;;
54935;SDS011;40838;50.676;7.838;2022-10-16T02:34:13;5.22;;;3.30;;
54935;SDS011;40838;50.676;7.838;2022-10-16T02:36:48;5.05;;;2.83;;
54935;SDS011;40838;50.676;7.838;2022-10-16T02:39:15;5.78;;;3.15;;
54935;SDS011;40838;50.676;7.838;2022-10-16T02:41:42;4.38;;;3.00;;
54935;SDS011;40838;50.676;7.838;2022-10-16T02:44:09;5.93;;;3.10;;
54935;SDS011;40838;50.676;7.838;2022-10-16T02:46:36;3.15;;;2.65;;
54935;SDS011;40838;50.676;7.838;2022-10-16T02:49:03;4.35;;;2.95;;
54935;SDS011;40838;50.676;7.838;2022-10-16T02:51:29;2.90;;;2.53;;
54935;SDS011;40838;50.676;7.838;2022-10-16T02:54:01;7.05;;;2.58;;
54935;SDS011;40838;50.676;7.838;2022-10-16T02:56:28;3.13;;;2.20;;
54935;SDS011;40838;50.676;7.838;2022-10-16T02:58:55;6.43;;;2.53;;
54935;SDS011;40838;50.676;7.838;2022-10-16T03:01:22;6.15;;;2.58;;
54935;SDS011;40838;50.676;7.838;2022-10-16T03:03:48;2.42;;;2.22;;
54935;SDS011;40838;50.676;7.838;2022-10-16T03:06:15;2.75;;;2.00;;
54935;SDS011;40838;50.676;7.838;2022-10-16T03:08:42;3.17;;;2.20;;
54935;SDS011;40838;50.676;7.838;2022-10-16T03:11:10;2.40;;;2.20;;
54935;SDS011;40838;50.676;7.838;2022-10-16T03:13:37;2.53;;;2.30;;
54935;SDS011;40838;50.676;7.838;2022-10-16T03:16:05;6.72;;;2.50;;
54935;SDS011;40838;50.676;7.838;2022-10-16T03:18:33;4.68;;;2.30;;
54935;SDS011;40838;50.676;7.838;2022-10-16T03:21:00;2.83;;;2.55;;
54935;SDS011;40838;50.676;7.838;2022-10-16T03:23:26;4.75;;;2.47;;
54935;SDS011;40838;50.676;7.838;2022-10-16T03:25:54;5.15;;;2.38;;
54935;SDS011;40838;50.676;7.838;2022-10-16T03:28:22;9.63;;;2.60;;
54935;SDS011;40838;50.676;7.838;2022-10-16T03:31:08;3.35;;;2.47;;
54935;SDS011;40838;50.676;7.838;2022-10-16T03:33:35;2.47;;;1.90;;
54935;SDS011;40838;50.676;7.838;2022-10-16T03:36:01;2.45;;;2.25;;
54935;SDS011;40838;50.676;7.838;2022-10-16T03:38:28;2.85;;;2.50;;
54935;SDS011;40838;50.676;7.838;2022-10-16T03:40:55;6.30;;;2.20;;
54935;SDS011;40838;50.676;7.838;2022-10-16T03:43:23;4.03;;;2.58;;
54935;SDS011;40838;50.676;7.838;2022-10-16T03:45:50;2.70;;;2.03;;
54935;SDS011;40838;50.676;7.838;2022-10-16T03:48:16;2.25;;;1.90;;
54935;SDS011;40838;50.676;7.838;2022-10-16T03:50:43;2.25;;;2.05;;
54935;SDS011;40838;50.676;7.838;2022-10-16T03:53:10;9.23;;;2.92;;
54935;SDS011;40838;50.676;7.838;2022-10-16T03:55:40;4.25;;;2.55;;
54935;SDS011;40838;50.676;7.838;2022-10-16T03:58:07;2.53;;;2.13;;
54935;SDS011;40838;50.676;7.838;2022-10-16T04:00:35;2.22;;;2.00;;
54935;SDS011;40838;50.676;7.838;2022-10-16T04:03:02;3.25;;;2.20;;
54935;SDS011;40838;50.676;7.838;2022-10-16T04:05:29;3.72;;;2.28;;
54935;SDS011;40838;50.676;7.838;2022-10-16T04:07:55;2.33;;;2.08;;
54935;SDS011;40838;50.676;7.838;2022-10-16T04:10:22;5.72;;;2.38;;
54935;SDS011;40838;50.676;7.838;2022-10-16T04:12:49;2.60;;;2.40;;
54935;SDS011;40838;50.676;7.838;2022-10-16T04:15:15;4.57;;;2.22;;
54935;SDS011;40838;50.676;7.838;2022-10-16T04:17:43;3.70;;;2.13;;
54935;SDS011;40838;50.676;7.838;2022-10-16T04:20:10;5.35;;;2.40;;
54935;SDS011;40838;50.676;7.838;2022-10-16T04:22:37;4.82;;;2.22;;
54935;SDS011;40838;50.676;7.838;2022-10-16T04:25:04;3.83;;;2.50;;
54935;SDS011;40838;50.676;7.838;2022-10-16T04:27:31;2.60;;;2.40;;
54935;SDS011;40838;50.676;7.838;2022-10-16T04:29:57;2.10;;;1.88;;
54935;SDS011;40838;50.676;7.838;2022-10-16T04:32:24;2.08;;;1.95;;
54935;SDS011;40838;50.676;7.838;2022-10-16T04:34:52;2.70;;;1.48;;
54935;SDS011;40838;50.676;7.838;2022-10-16T04:37:18;3.83;;;1.77;;
54935;SDS011;40838;50.676;7.838;2022-10-16T04:39:45;5.20;;;1.65;;
54935;SDS011;40838;50.676;7.838;2022-10-16T04:42:12;6.70;;;1.85;;
54935;SDS011;40838;50.676;7.838;2022-10-16T04:44:39;4.85;;;1.88;;
54935;SDS011;40838;50.676;7.838;2022-10-16T04:47:05;2.25;;;1.90;;
54935;SDS011;40838;50.676;7.838;2022-10-16T04:49:32;3.38;;;1.60;;
54935;SDS011;40838;50.676;7.838;2022-10-16T04:52:00;3.05;;;1.45;;
54935;SDS011;40838;50.676;7.838;2022-10-16T04:54:27;4.65;;;1.60;;
54935;SDS011;40838;50.676;7.838;2022-10-16T04:56:54;1.52;;;1.42;;
54935;SDS011;40838;50.676;7.838;2022-10-16T04:59:20;1.52;;;1.23;;
54935;SDS011;40838;50.676;7.838;2022-10-16T05:01:48;1.58;;;1.45;;
54935;SDS011;40838;50.676;7.838;2022-10-16T05:04:15;5.00;;;1.25;;
54935;SDS011;40838;50.676;7.838;2022-10-16T05:06:42;2.50;;;1.25;;
54935;SDS011;40838;50.676;7.838;2022-10-16T05:09:10;2.90;;;1.27;;
54935;SDS011;40838;50.676;7.838;2022-10-16T05:11:37;2.15;;;0.98;;
54935;SDS011;40838;50.676;7.838;2022-10-16T05:14:03;1.90;;;1.30;;
54935;SDS011;40838;50.676;7.838;2022-10-16T05:16:30;1.45;;;1.00;;
54935;SDS011;40838;50.676;7.838;2022-10-16T05:18:57;1.88;;;0.90;;
54935;SDS011;40838;50.676;7.838;2022-10-16T05:21:23;1.35;;;0.95;;
54935;SDS011;40838;50.676;7.838;2022-10-16T05:23:50;2.47;;;1.20;;
54935;SDS011;40838;50.676;7.838;2022-10-16T05:26:18;2.90;;;1.30;;
54935;SDS011;40838;50.676;7.838;2022-10-16T05:28:49;1.90;;;1.10;;
54935;SDS011;40838;50.676;7.838;2022-10-16T05:31:16;1.45;;;1.35;;
54935;SDS011;40838;50.676;7.838;2022-10-16T05:33:43;1.30;;;1.20;;
54935;SDS011;40838;50.676;7.838;2022-10-16T05:36:13;2.97;;;1.02;;
54935;SDS011;40838;50.676;7.838;2022-10-16T05:38:50;1.60;;;1.25;;
54935;SDS011;40838;50.676;7.838;2022-10-16T05:41:36;4.70;;;0.87;;
54935;SDS011;40838;50.676;7.838;2022-10-16T05:44:03;1.33;;;1.20;;
54935;SDS011;40838;50.676;7.838;2022-10-16T05:46:30;3.22;;;1.27;;
54935;SDS011;40838;50.676;7.838;2022-10-16T05:48:58;2.10;;;1.33;;
54935;SDS011;40838;50.676;7.838;2022-10-16T05:51:45;1.85;;;0.90;;
54935;SDS011;40838;50.676;7.838;2022-10-16T05:54:17;1.20;;;1.10;;
54935;SDS011;40838;50.676;7.838;2022-10-16T05:56:59;1.90;;;0.70;;
54935;SDS011;40838;50.676;7.838;2022-10-16T05:59:29;5.72;;;1.23;;
54935;SDS011;40838;50.676;7.838;2022-10-16T06:01:56;0.70;;;0.70;;
54935;SDS011;40838;50.676;7.838;2022-10-16T06:04:23;1.35;;;0.90;;
54935;SDS011;40838;50.676;7.838;2022-10-16T06:06:49;6.90;;;1.00;;
54935;SDS011;40838;50.676;7.838;2022-10-16T06:09:16;4.28;;;1.90;;
54935;SDS011;40838;50.676;7.838;2022-10-16T06:11:48;0.80;;;0.70;;
54935;SDS011;40838;50.676;7.838;2022-10-16T06:14:16;3.63;;;1.80;;
54935;SDS011;40838;50.676;7.838;2022-10-16T06:16:43;2.17;;;1.75;;
54935;SDS011;40838;50.676;7.838;2022-10-16T06:19:11;3.72;;;1.67;;
54935;SDS011;40838;50.676;7.838;2022-10-16T06:21:41;9.88;;;1.52;;
54935;SDS011;40838;50.676;7.838;2022-10-16T06:24:09;3.72;;;1.00;;
54935;SDS011;40838;50.676;7.838;2022-10-16T06:26:35;5.40;;;0.73;;
54935;SDS011;40838;50.676;7.838;2022-10-16T06:29:02;3.00;;;1.30;;
54935;SDS011;40838;50.676;7.838;2022-10-16T06:31:30;1.02;;;0.80;;
54935;SDS011;40838;50.676;7.838;2022-10-16T06:33:58;1.48;;;1.10;;
54935;SDS011;40838;50.676;7.838;2022-10-16T06:36:28;3.10;;;0.90;;
54935;SDS011;40838;50.676;7.838;2022-10-16T06:38:55;4.47;;;0.88;;
54935;SDS011;40838;50.676;7.838;2022-10-16T06:41:24;2.10;;;0.60;;
54935;SDS011;40838;50.676;7.838;2022-10-16T06:43:51;3.08;;;0.77;;
54935;SDS011;40838;50.676;7.838;2022-10-16T06:46:19;2.83;;;1.00;;
54935;SDS011;40838;50.676;7.838;2022-10-16T06:48:47;2.67;;;0.63;;
54935;SDS011;40838;50.676;7.838;2022-10-16T06:51:14;1.08;;;0.60;;
54935;SDS011;40838;50.676;7.838;2022-10-16T06:53:42;7.70;;;6.15;;
54935;SDS011;40838;50.676;7.838;2022-10-16T06:56:15;8.90;;;6.60;;
54935;SDS011;40838;50.676;7.838;2022-10-16T06:58:42;5.00;;;3.50;;
54935;SDS011;40838;50.676;7.838;2022-10-16T07:01:09;2.15;;;1.40;;
54935;SDS011;40838;50.676;7.838;2022-10-16T07:03:36;2.75;;;1.90;;
54935;SDS011;40838;50.676;7.838;2022-10-16T07:06:05;5.28;;;2.20;;
54935;SDS011;40838;50.676;7.838;2022-10-16T07:08:32;3.47;;;1.48;;
54935;SDS011;40838;50.676;7.838;2022-10-16T07:10:59;4.05;;;1.08;;
54935;SDS011;40838;50.676;7.838;2022-10-16T07:13:26;2.78;;;2.03;;
54935;SDS011;40838;50.676;7.838;2022-10-16T07:15:52;4.07;;;3.10;;
54935;SDS011;40838;50.676;7.838;2022-10-16T07:18:19;0.80;;;0.80;;
54935;SDS011;40838;50.676;7.838;2022-10-16T07:20:46;5.53;;;2.05;;
54935;SDS011;40838;50.676;7.838;2022-10-16T07:23:16;1.70;;;1.50;;
54935;SDS011;40838;50.676;7.838;2022-10-16T07:25:42;2.53;;;1.85;;
54935;SDS011;40838;50.676;7.838;2022-10-16T07:28:09;3.67;;;2.65;;
54935;SDS011;40838;50.676;7.838;2022-10-16T07:30:35;3.83;;;2.53;;
54935;SDS011;40838;50.676;7.838;2022-10-16T07:33:03;2.35;;;1.77;;
54935;SDS011;40838;50.676;7.838;2022-10-16T07:35:30;34.05;;;24.60;;
54935;SDS011;40838;50.676;7.838;2022-10-16T07:37:56;11.55;;;7.90;;
54935;SDS011;40838;50.676;7.838;2022-10-16T07:40:24;3.13;;;1.92;;
54935;SDS011;40838;50.676;7.838;2022-10-16T07:42:57;4.47;;;2.95;;
54935;SDS011;40838;50.676;7.838;2022-10-16T07:45:24;1.40;;;1.17;;
54935;SDS011;40838;50.676;7.838;2022-10-16T07:47:50;3.25;;;2.95;;
54935;SDS011;40838;50.676;7.838;2022-10-16T07:50:17;2.15;;;1.95;;
54935;SDS011;40838;50.676;7.838;2022-10-16T07:52:44;5.20;;;4.15;;
54935;SDS011;40838;50.676;7.838;2022-10-16T07:55:10;3.88;;;1.52;;
54935;SDS011;40838;50.676;7.838;2022-10-16T07:57:38;4.30;;;2.50;;
54935;SDS011;40838;50.676;7.838;2022-10-16T08:00:05;3.95;;;2.85;;
54935;SDS011;40838;50.676;7.838;2022-10-16T08:02:38;4.63;;;3.60;;
54935;SDS011;40838;50.676;7.838;2022-10-16T08:05:05;6.05;;;3.78;;
54935;SDS011;40838;50.676;7.838;2022-10-16T08:07:32;3.60;;;2.88;;
54935;SDS011;40838;50.676;7.838;2022-10-16T08:09:58;3.05;;;0.85;;
54935;SDS011;40838;50.676;7.838;2022-10-16T08:12:25;3.42;;;1.02;;
54935;SDS011;40838;50.676;7.838;2022-10-16T08:14:53;3.40;;;1.70;;
54935;SDS011;40838;50.676;7.838;2022-10-16T08:17:20;3.13;;;2.70;;
54935;SDS011;40838;50.676;7.838;2022-10-16T08:19:46;3.85;;;0.90;;
54935;SDS011;40838;50.676;7.838;2022-10-16T08:22:13;3.55;;;0.93;;
54935;SDS011;40838;50.676;7.838;2022-10-16T08:24:40;1.73;;;1.02;;
54935;SDS011;40838;50.676;7.838;2022-10-16T08:27:07;5.00;;;1.35;;
54935;SDS011;40838;50.676;7.838;2022-10-16T08:29:37;0.93;;;0.93;;
54935;SDS011;40838;50.676;7.838;2022-10-16T08:32:09;4.95;;;1.90;;
54935;SDS011;40838;50.676;7.838;2022-10-16T08:34:35;2.13;;;1.90;;
54935;SDS011;40838;50.676;7.838;2022-10-16T08:37:02;1.23;;;0.80;;
54935;SDS011;40838;50.676;7.838;2022-10-16T08:39:30;2.88;;;1.20;;
54935;SDS011;40838;50.676;7.838;2022-10-16T08:47:38;4.20;;;1.48;;
54935;SDS011;40838;50.676;7.838;2022-10-16T08:50:08;1.95;;;0.60;;
54935;SDS011;40838;50.676;7.838;2022-10-16T08:52:35;0.43;;;0.43;;
54935;SDS011;40838;50.676;7.838;2022-10-16T08:55:05;1.40;;;0.60;;
54935;SDS011;40838;50.676;7.838;2022-10-16T08:57:31;2.78;;;0.77;;
54935;SDS011;40838;50.676;7.838;2022-10-16T08:59:59;3.42;;;1.75;;
54935;SDS011;40838;50.676;7.838;2022-10-16T09:02:28;2.25;;;0.50;;
54935;SDS011;40838;50.676;7.838;2022-10-16T09:07:44;2.40;;;1.92;;
54935;SDS011;40838;50.676;7.838;2022-10-16T09:10:17;5.05;;;0.60;;
54935;SDS011;40838;50.676;7.838;2022-10-16T09:12:51;2.33;;;0.70;;
54935;SDS011;40838;50.676;7.838;2022-10-16T09:15:22;5.20;;;0.60;;
54935;SDS011;40838;50.676;7.838;2022-10-16T09:17:55;4.43;;;0.90;;
54935;SDS011;40838;50.676;7.838;2022-10-16T09:20:27;3.15;;;1.60;;
54935;SDS011;40838;50.676;7.838;2022-10-16T09:23:00;1.20;;;0.90;;
54935;SDS011;40838;50.676;7.838;2022-10-16T09:25:34;1.00;;;0.70;;
54935;SDS011;40838;50.676;7.838;2022-10-16T09:28:01;5.97;;;1.80;;
54935;SDS011;40838;50.676;7.838;2022-10-16T09:30:28;1.23;;;1.13;;
54935;SDS011;40838;50.676;7.838;2022-10-16T09:32:55;2.22;;;0.82;;
54935;SDS011;40838;50.676;7.838;2022-10-16T09:35:25;0.70;;;0.70;;
54935;SDS011;40838;50.676;7.838;2022-10-16T09:37:54;1.42;;;0.70;;
54935;SDS011;40838;50.676;7.838;2022-10-16T09:40:25;2.75;;;1.48;;
54935;SDS011;40838;50.676;7.838;2022-10-16T09:42:55;1.20;;;1.10;;
54935;SDS011;40838;50.676;7.838;2022-10-16T09:45:23;3.00;;;1.30;;
54935;SDS011;40838;50.676;7.838;2022-10-16T09:47:52;3.25;;;0.85;;
54935;SDS011;40838;50.676;7.838;2022-10-16T09:50:20;2.72;;;1.30;;
54935;SDS011;40838;50.676;7.838;2022-10-16T09:52:48;1.38;;;0.60;;
54935;SDS011;40838;50.676;7.838;2022-10-16T09:55:15;1.10;;;0.77;;
54935;SDS011;40838;50.676;7.838;2022-10-16T09:57:51;7.50;;;0.85;;
54935;SDS011;40838;50.676;7.838;2022-10-16T10:00:19;2.58;;;0.77;;
54935;SDS011;40838;50.676;7.838;2022-10-16T10:02:45;2.17;;;0.68;;
54935;SDS011;40838;50.676;7.838;2022-10-16T10:05:20;6.55;;;1.20;;
54935;SDS011;40838;50.676;7.838;2022-10-16T10:10:19;1.63;;;0.75;;
54935;SDS011;40838;50.676;7.838;2022-10-16T10:12:47;1.50;;;0.57;;
54935;SDS011;40838;50.676;7.838;2022-10-16T10:15:15;0.77;;;0.77;;
54935;SDS011;40838;50.676;7.838;2022-10-16T10:17:47;3.50;;;1.40;;
54935;SDS011;40838;50.676;7.838;2022-10-16T10:20:18;4.20;;;2.70;;
54935;SDS011;40838;50.676;7.838;2022-10-16T10:22:48;1.40;;;0.75;;
54935;SDS011;40838;50.676;7.838;2022-10-16T10:25:18;0.93;;;0.90;;
54935;SDS011;40838;50.676;7.838;2022-10-16T10:28:01;2.97;;;1.55;;
54935;SDS011;40838;50.676;7.838;2022-10-16T10:30:36;3.03;;;1.00;;
54935;SDS011;40838;50.676;7.838;2022-10-16T10:33:22;4.15;;;1.90;;
54935;SDS011;40838;50.676;7.838;2022-10-16T10:35:53;0.80;;;0.80;;
54935;SDS011;40838;50.676;7.838;2022-10-16T10:38:25;3.50;;;0.90;;
54935;SDS011;40838;50.676;7.838;2022-10-16T10:40:56;1.75;;;0.90;;
54935;SDS011;40838;50.676;7.838;2022-10-16T10:43:28;3.25;;;1.15;;
54935;SDS011;40838;50.676;7.838;2022-10-16T10:46:01;1.88;;;0.90;;
54935;SDS011;40838;50.676;7.838;2022-10-16T10:48:38;1.20;;;0.88;;
54935;SDS011;40838;50.676;7.838;2022-10-16T10:51:10;0.55;;;0.55;;
54935;SDS011;40838;50.676;7.838;2022-10-16T10:53:41;2.70;;;0.50;;
54935;SDS011;40838;50.676;7.838;2022-10-16T10:56:15;2.10;;;0.80;;
54935;SDS011;40838;50.676;7.838;2022-10-16T10:58:50;2.22;;;0.60;;
54935;SDS011;40838;50.676;7.838;2022-10-16T11:01:22;1.23;;;0.88;;
54935;SDS011;40838;50.676;7.838;2022-10-16T11:03:59;2.70;;;0.50;;
54935;SDS011;40838;50.676;7.838;2022-10-16T11:06:29;2.25;;;0.60;;
54935;SDS011;40838;50.676;7.838;2022-10-16T11:08:58;0.63;;;0.43;;
54935;SDS011;40838;50.676;7.838;2022-10-16T11:11:25;0.80;;;0.40;;
54935;SDS011;40838;50.676;7.838;2022-10-16T11:13:56;3.60;;;0.40;;
54935;SDS011;40838;50.676;7.838;2022-10-16T11:16:26;1.80;;;0.40;;
54935;SDS011;40838;50.676;7.838;2022-10-16T11:18:55;0.47;;;0.40;;
54935;SDS011;40838;50.676;7.838;2022-10-16T11:21:24;0.55;;;0.50;;
54935;SDS011;40838;50.676;7.838;2022-10-16T11:23:51;1.48;;;1.25;;
54935;SDS011;40838;50.676;7.838;2022-10-16T11:26:20;1.60;;;0.47;;
54935;SDS011;40838;50.676;7.838;2022-10-16T11:28:48;0.88;;;0.50;;
54935;SDS011;40838;50.676;7.838;2022-10-16T11:31:16;0.60;;;0.40;;
54935;SDS011;40838;50.676;7.838;2022-10-16T11:33:45;0.70;;;0.35;;
54935;SDS011;40838;50.676;7.838;2022-10-16T11:36:15;1.85;;;0.50;;
54935;SDS011;40838;50.676;7.838;2022-10-16T11:38:44;3.40;;;0.40;;
54935;SDS011;40838;50.676;7.838;2022-10-16T11:41:15;0.40;;;0.40;;
54935;SDS011;40838;50.676;7.838;2022-10-16T11:43:46;1.88;;;0.50;;
54935;SDS011;40838;50.676;7.838;2022-10-16T11:46:15;5.90;;;0.60;;
54935;SDS011;40838;50.676;7.838;2022-10-16T11:48:45;2.42;;;0.40;;
54935;SDS011;40838;50.676;7.838;2022-10-16T11:51:16;0.65;;;0.30;;
54935;SDS011;40838;50.676;7.838;2022-10-16T11:53:46;2.92;;;0.40;;
54935;SDS011;40838;50.676;7.838;2022-10-16T11:56:19;1.92;;;0.60;;
54935;SDS011;40838;50.676;7.838;2022-10-16T11:58:50;0.52;;;0.40;;
54935;SDS011;40838;50.676;7.838;2022-10-16T12:01:18;4.65;;;0.40;;
54935;SDS011;40838;50.676;7.838;2022-10-16T12:03:53;0.60;;;0.50;;
54935;SDS011;40838;50.676;7.838;2022-10-16T12:06:27;2.15;;;0.57;;
54935;SDS011;40838;50.676;7.838;2022-10-16T12:08:57;0.32;;;0.30;;
54935;SDS011;40838;50.676;7.838;2022-10-16T12:11:31;0.70;;;0.38;;
54935;SDS011;40838;50.676;7.838;2022-10-16T12:14:17;2.75;;;0.70;;
54935;SDS011;40838;50.676;7.838;2022-10-16T12:16:52;1.98;;;0.40;;
54935;SDS011;40838;50.676;7.838;2022-10-16T12:19:28;0.35;;;0.30;;
54935;SDS011;40838;50.676;7.838;2022-10-16T12:21:55;0.60;;;0.47;;
54935;SDS011;40838;50.676;7.838;2022-10-16T12:24:33;1.15;;;0.40;;
54935;SDS011;40838;50.676;7.838;2022-10-16T12:29:30;1.05;;;0.47;;
54935;SDS011;40838;50.676;7.838;2022-10-16T12:32:02;1.50;;;0.75;;
54935;SDS011;40838;50.676;7.838;2022-10-16T12:34:32;1.13;;;0.40;;
54935;SDS011;40838;50.676;7.838;2022-10-16T12:37:07;1.08;;;0.35;;
54935;SDS011;40838;50.676;7.838;2022-10-16T12:39:35;3.15;;;0.50;;
54935;SDS011;40838;50.676;7.838;2022-10-16T12:42:03;3.65;;;0.75;;
54935;SDS011;40838;50.676;7.838;2022-10-16T12:44:34;2.17;;;0.40;;
54935;SDS011;40838;50.676;7.838;2022-10-16T12:47:01;0.55;;;0.45;;
54935;SDS011;40838;50.676;7.838;2022-10-16T12:49:35;3.35;;;0.38;;
54935;SDS011;40838;50.676;7.838;2022-10-16T12:52:04;1.00;;;0.32;;
54935;SDS011;40838;50.676;7.838;2022-10-16T12:54:31;1.50;;;0.60;;
54935;SDS011;40838;50.676;7.838;2022-10-16T12:59:47;1.45;;;0.30;;
54935;SDS011;40838;50.676;7.838;2022-10-16T13:02:23;0.30;;;0.30;;
54935;SDS011;40838;50.676;7.838;2022-10-16T13:05:03;3.92;;;0.57;;
54935;SDS011;40838;50.676;7.838;2022-10-16T13:07:44;0.45;;;0.45;;
54935;SDS011;40838;50.676;7.838;2022-10-16T13:10:17;2.25;;;0.40;;
54935;SDS011;40838;50.676;7.838;2022-10-16T13:12:56;2.13;;;0.35;;
54935;SDS011;40838;50.676;7.838;2022-10-16T13:15:29;0.75;;;0.40;;
54935;SDS011;40838;50.676;7.838;2022-10-16T13:20:31;1.45;;;0.52;;
54935;SDS011;40838;50.676;7.838;2022-10-16T13:23:03;1.33;;;0.30;;
54935;SDS011;40838;50.676;7.838;2022-10-16T13:25:36;1.52;;;0.40;;
54935;SDS011;40838;50.676;7.838;2022-10-16T13:28:05;2.97;;;0.30;;
54935;SDS011;40838;50.676;7.838;2022-10-16T13:30:34;0.85;;;0.40;;
54935;SDS011;40838;50.676;7.838;2022-10-16T13:33:03;1.27;;;0.30;;
54935;SDS011;40838;50.676;7.838;2022-10-16T13:35:34;0.30;;;0.30;;
54935;SDS011;40838;50.676;7.838;2022-10-16T13:38:05;0.30;;;0.30;;
54935;SDS011;40838;50.676;7.838;2022-10-16T13:40:32;0.88;;;0.75;;
54935;SDS011;40838;50.676;7.838;2022-10-16T13:43:00;1.05;;;0.40;;
54935;SDS011;40838;50.676;7.838;2022-10-16T13:45:28;2.58;;;0.40;;
54935;SDS011;40838;50.676;7.838;2022-10-16T13:48:03;0.60;;;0.50;;
54935;SDS011;40838;50.676;7.838;2022-10-16T13:50:29;0.38;;;0.30;;
54935;SDS011;40838;50.676;7.838;2022-10-16T13:53:04;1.17;;;0.40;;
54935;SDS011;40838;50.676;7.838;2022-10-16T13:55:32;1.08;;;0.40;;
54935;SDS011;40838;50.676;7.838;2022-10-16T13:58:07;0.68;;;0.40;;
54935;SDS011;40838;50.676;7.838;2022-10-16T14:00:33;1.02;;;0.65;;
54935;SDS011;40838;50.676;7.838;2022-10-16T14:03:01;0.73;;;0.60;;
54935;SDS011;40838;50.676;7.838;2022-10-16T14:05:28;5.78;;;0.70;;
54935;SDS011;40838;50.676;7.838;2022-10-16T14:07:55;0.77;;;0.38;;
54935;SDS011;40838;50.676;7.838;2022-10-16T14:10:24;2.78;;;0.47;;
54935;SDS011;40838;50.676;7.838;2022-10-16T14:12:58;0.40;;;0.40;;
54935;SDS011;40838;50.676;7.838;2022-10-16T14:15:25;1.42;;;0.60;;
54935;SDS011;40838;50.676;7.838;2022-10-16T14:17:52;3.53;;;0.50;;
54935;SDS011;40838;50.676;7.838;2022-10-16T14:20:20;3.40;;;0.47;;
54935;SDS011;40838;50.676;7.838;2022-10-16T14:22:47;2.13;;;0.38;;
54935;SDS011;40838;50.676;7.838;2022-10-16T14:25:26;0.70;;;0.38;;
54935;SDS011;40838;50.676;7.838;2022-10-16T14:27:59;2.13;;;0.40;;
54935;SDS011;40838;50.676;7.838;2022-10-16T14:30:27;0.68;;;0.40;;
54935;SDS011;40838;50.676;7.838;2022-10-16T14:32:54;1.75;;;0.40;;
54935;SDS011;40838;50.676;7.838;2022-10-16T14:35:22;0.95;;;0.55;;
54935;SDS011;40838;50.676;7.838;2022-10-16T14:37:51;2.83;;;0.60;;
54935;SDS011;40838;50.676;7.838;2022-10-16T14:40:18;1.10;;;0.60;;
54935;SDS011;40838;50.676;7.838;2022-10-16T14:42:46;2.15;;;0.50;;
54935;SDS011;40838;50.676;7.838;2022-10-16T14:45:12;2.28;;;0.52;;
54935;SDS011;40838;50.676;7.838;2022-10-16T14:47:46;0.52;;;0.45;;
54935;SDS011;40838;50.676;7.838;2022-10-16T14:50:14;2.47;;;1.05;;
54935;SDS011;40838;50.676;7.838;2022-10-16T14:52:40;1.30;;;0.63;;
54935;SDS011;40838;50.676;7.838;2022-10-16T14:55:09;3.88;;;0.60;;
54935;SDS011;40838;50.676;7.838;2022-10-16T14:57:36;1.02;;;0.47;;
54935;SDS011;40838;50.676;7.838;2022-10-16T15:00:06;0.93;;;0.50;;
54935;SDS011;40838;50.676;7.838;2022-10-16T15:02:40;0.40;;;0.40;;
54935;SDS011;40838;50.676;7.838;2022-10-16T15:05:10;2.17;;;0.55;;
54935;SDS011;40838;50.676;7.838;2022-10-16T15:07:38;3.63;;;0.90;;
54935;SDS011;40838;50.676;7.838;2022-10-16T15:10:04;0.65;;;0.63;;
54935;SDS011;40838;50.676;7.838;2022-10-16T15:12:31;4.85;;;0.60;;
54935;SDS011;40838;50.676;7.838;2022-10-16T15:14:58;1.08;;;0.80;;
54935;SDS011;40838;50.676;7.838;2022-10-16T15:17:29;2.20;;;0.60;;
54935;SDS011;40838;50.676;7.838;2022-10-16T15:19:56;1.63;;;0.68;;
54935;SDS011;40838;50.676;7.838;2022-10-16T15:22:24;2.90;;;0.70;;